| time (UTC) | temp C | wind direction | speed KPH | gust KPH | rain 1hr cm | rain 24hr cm | rain mn cm | humidity % | barometer mb |
| 20260505153020 | 11 | 25 | 11.3 | 17.7 | 0.00 | 1.35 | 1.14 | 88 | 1009.2 |
| 20260505152021 | 11 | 57 | 3.2 | 9.7 | 0.00 | 1.35 | 1.14 | 88 | 1009.3 |
| 20260505151018 | 11 | 47 | 4.8 | 11.3 | 0.00 | 1.35 | 1.14 | 89 | 1009.6 |
| 20260505125020 | 11 | 0 | 14.5 | 20.9 | 0.10 | 0.64 | 0.46 | 87 | 1009.3 |
| 20260505124017 | 11 | 16 | 12.9 | 17.7 | 0.10 | 0.64 | 0.46 | 86 | 1008.8 |
| 20260505123059 | 11 | 19 | 11.3 | 16.1 | 0.10 | 0.64 | 0.46 | 86 | 1009.0 |
| 20260505122017 | 11 | 33 | 12.9 | 20.9 | 0.08 | 0.64 | 0.46 | 86 | 1008.4 |
| 20260505121018 | 12 | 31 | 9.7 | 19.3 | 0.05 | 0.58 | 0.41 | 87 | 1008.5 |
| 20260505120019 | 12 | 23 | 9.7 | 16.1 | 0.05 | 0.58 | 0.41 | 88 | 1008.4 |
| 20260505115018 | 12 | 33 | 11.3 | 17.7 | 0.18 | 0.56 | 0.36 | 88 | 1007.8 |
| 20260505114018 | 12 | 22 | 11.3 | 17.7 | 0.28 | 0.56 | 0.36 | 88 | 1007.6 |
| 20260505113019 | 13 | 30 | 12.9 | 19.3 | 0.30 | 0.56 | 0.36 | 85 | 1007.6 |
| 20260505112018 | 14 | 17 | 16.1 | 22.5 | 0.30 | 0.56 | 0.36 | 87 | 1007.7 |
| 20260505111019 | 15 | 18 | 11.3 | 19.3 | 0.30 | 0.56 | 0.36 | 91 | 1007.6 |
| 20260505102017 | 16 | 16 | 1.6 | 4.8 | 0.00 | 0.25 | 0.05 | 82 | 1006.1 |
| 20260505101040 | 16 | 160 | 0.0 | 3.2 | 0.00 | 0.25 | 0.05 | 81 | 1006.0 |
| 20260505100021 | 16 | 159 | 3.2 | 4.8 | 0.00 | 0.25 | 0.05 | 81 | 1006.0 |
| 20260505095017 | 16 | 170 | 3.2 | 6.4 | 0.00 | 0.25 | 0.05 | 82 | 1006.1 |
| 20260505094017 | 16 | 174 | 4.8 | 6.4 | 0.00 | 0.25 | 0.05 | 81 | 1006.1 |
| 20260505093017 | 16 | 173 | 3.2 | 4.8 | 0.05 | 0.25 | 0.05 | 82 | 1006.2 |
| 20260505092017 | 16 | 187 | 1.6 | 4.8 | 0.05 | 0.25 | 0.05 | 81 | 1006.3 |
| 20260505091020 | 16 | 81 | 0.0 | 1.6 | 0.05 | 0.25 | 0.05 | 80 | 1006.4 |
| 20260505090017 | 16 | 170 | 3.2 | 4.8 | 0.05 | 0.25 | 0.05 | 80 | 1006.6 |
| 20260505085018 | 17 | 155 | 3.2 | 6.4 | 0.05 | 0.25 | 0.05 | 78 | 1006.7 |
| 20260505084018 | 17 | 165 | 3.2 | 4.8 | 0.05 | 0.25 | 0.05 | 75 | 1006.9 |
| 20260505083020 | 17 | 168 | 4.8 | 8.0 | 0.00 | 0.20 | 0.00 | 74 | 1006.8 |
| 20260505082019 | 17 | 154 | 1.6 | 3.2 | 0.00 | 0.20 | 0.00 | 73 | 1006.7 |
| 20260505081019 | 18 | 173 | 3.2 | 4.8 | 0.00 | 0.20 | 0.00 | 72 | 1006.7 |
| 20260505080020 | 18 | 142 | 1.6 | 8.0 | 0.00 | 0.20 | 0.00 | 67 | 1006.8 |
| 20260505075059 | 18 | 55 | 3.2 | 9.7 | 0.00 | 0.20 | 0.00 | 67 | 1007.1 |
| 20260505074019 | 19 | 24 | 6.4 | 12.9 | 0.00 | 0.20 | 0.00 | 68 | 1007.2 |
| 20260505073016 | 18 | 20 | 16.1 | 22.5 | 0.00 | 0.20 | 0.00 | 69 | 1007.5 |
| 20260505072017 | 18 | 350 | 16.1 | 24.1 | 0.00 | 0.20 | 0.00 | 71 | 1007.5 |
| 20260505071040 | 18 | 209 | 3.2 | 6.4 | 0.00 | 0.20 | 0.00 | 71 | 1006.1 |
| 20260505070020 | 18 | 207 | 3.2 | 6.4 | 0.00 | 0.20 | 0.00 | 70 | 1005.8 |
| 20260505065017 | 18 | 208 | 3.2 | 6.4 | 0.00 | 0.20 | 0.00 | 69 | 1005.8 |
| 20260505064017 | 18 | 209 | 4.8 | 8.0 | 0.00 | 0.20 | 0.00 | 69 | 1005.7 |
| 20260505063037 | 19 | 207 | 4.8 | 8.0 | 0.00 | 0.20 | 0.00 | 69 | 1005.6 |
| 20260505062038 | 19 | 203 | 4.8 | 6.4 | 0.00 | 0.20 | 0.00 | 68 | 1005.5 |
| 20260505061018 | 19 | 206 | 4.8 | 8.0 | 0.00 | 0.23 | 0.00 | 68 | 1005.5 |
| 20260505060018 | 19 | 207 | 4.8 | 9.7 | 0.00 | 0.23 | 0.00 | 67 | 1005.4 |
| 20260505055018 | 19 | 207 | 4.8 | 8.0 | 0.00 | 0.23 | 0.00 | 67 | 1005.4 |
| 20260505054019 | 19 | 209 | 4.8 | 8.0 | 0.00 | 0.23 | 0.00 | 66 | 1005.2 |
| 20260505053019 | 19 | 206 | 4.8 | 9.7 | 0.00 | 0.23 | 0.00 | 66 | 1005.2 |
| 20260505052017 | 20 | 209 | 4.8 | 8.0 | 0.00 | 0.23 | 0.00 | 66 | 1005.1 |
| 20260505051020 | 20 | 212 | 4.8 | 8.0 | 0.00 | 0.23 | 0.00 | 65 | 1005.0 |
| 20260505041018 | 21 | 201 | 6.4 | 12.9 | 0.00 | 0.23 | 0.23 | 62 | 1004.7 |
| 20260505040019 | 21 | 200 | 8.0 | 16.1 | 0.00 | 0.23 | 0.23 | 62 | 1004.7 |
| 20260505035018 | 21 | 197 | 8.0 | 14.5 | 0.00 | 0.23 | 0.23 | 62 | 1004.8 |
| 20260505034018 | 21 | 200 | 8.0 | 16.1 | 0.00 | 0.23 | 0.23 | 62 | 1004.9 |
| 20260505033019 | 21 | 195 | 6.4 | 16.1 | 0.00 | 0.23 | 0.23 | 62 | 1005.0 |
| 20260505032019 | 21 | 205 | 6.4 | 12.9 | 0.00 | 0.23 | 0.23 | 62 | 1005.0 |
| 20260505031019 | 21 | 192 | 8.0 | 14.5 | 0.00 | 0.23 | 0.23 | 62 | 1005.0 |
| 20260505030019 | 21 | 191 | 8.0 | 16.1 | 0.00 | 0.23 | 0.23 | 62 | 1004.8 |
| 20260505025039 | 21 | 189 | 9.7 | 14.5 | 0.00 | 0.23 | 0.23 | 61 | 1004.5 |
| 20260505024019 | 21 | 189 | 9.7 | 14.5 | 0.00 | 0.23 | 0.23 | 61 | 1004.3 |
| 20260505023016 | 21 | 186 | 9.7 | 16.1 | 0.00 | 0.23 | 0.23 | 61 | 1004.3 |
| 20260505022019 | 21 | 193 | 9.7 | 16.1 | 0.00 | 0.23 | 0.23 | 60 | 1004.1 |
| 20260505021020 | 21 | 189 | 9.7 | 14.5 | 0.00 | 0.23 | 0.23 | 60 | 1004.0 |
| 20260505020020 | 21 | 184 | 8.0 | 12.9 | 0.00 | 0.23 | 0.23 | 60 | 1003.9 |
| 20260505015017 | 21 | 192 | 6.4 | 11.3 | 0.00 | 0.23 | 0.23 | 59 | 1003.9 |
| 20260505014119 | 21 | 197 | 4.8 | 9.7 | 0.00 | 0.23 | 0.23 | 59 | 1003.9 |
| 20260505013019 | 22 | 201 | 4.8 | 11.3 | 0.00 | 0.23 | 0.23 | 59 | 1003.8 |
| 20260505012020 | 22 | 196 | 4.8 | 11.3 | 0.00 | 0.23 | 0.23 | 58 | 1003.6 |
| 20260505011018 | 22 | 196 | 4.8 | 8.0 | 0.00 | 0.23 | 0.23 | 57 | 1003.5 |
| 20260505010018 | 22 | 193 | 4.8 | 11.3 | 0.00 | 0.23 | 0.23 | 57 | 1003.4 |
| 20260505005018 | 22 | 193 | 6.4 | 9.7 | 0.00 | 0.23 | 0.23 | 56 | 1003.3 |
| 20260505004018 | 23 | 194 | 6.4 | 11.3 | 0.00 | 0.23 | 0.23 | 56 | 1003.2 |
| 20260505003039 | 23 | 194 | 6.4 | 11.3 | 0.00 | 0.23 | 0.23 | 55 | 1003.3 |
| 20260505002018 | 23 | 195 | 6.4 | 11.3 | 0.00 | 0.23 | 0.23 | 54 | 1003.1 |
| 20260505001019 | 23 | 196 | 6.4 | 14.5 | 0.00 | 0.23 | 0.23 | 53 | 1003.1 |
| 20260505000019 | 24 | 195 | 8.0 | 12.9 | 0.00 | 0.23 | 0.23 | 52 | 1003.2 |
| 20260504235025 | 24 | 198 | 8.0 | 12.9 | 0.00 | 0.23 | 0.23 | 51 | 1003.1 |
| 20260504234016 | 24 | 201 | 6.4 | 11.3 | 0.00 | 0.23 | 0.23 | 51 | 1003.0 |
| 20260504233018 | 25 | 201 | 6.4 | 12.9 | 0.00 | 0.23 | 0.23 | 50 | 1003.3 |
| 20260504232020 | 25 | 204 | 9.7 | 14.5 | 0.00 | 0.23 | 0.23 | 50 | 1003.1 |
| 20260504231040 | 25 | 195 | 8.0 | 14.5 | 0.00 | 0.23 | 0.23 | 51 | 1003.4 |
| 20260504230018 | 25 | 198 | 6.4 | 9.7 | 0.00 | 0.23 | 0.23 | 51 | 1003.6 |
| 20260504225017 | 25 | 198 | 6.4 | 9.7 | 0.00 | 0.23 | 0.23 | 51 | 1003.7 |
| 20260504224017 | 25 | 197 | 6.4 | 9.7 | 0.00 | 0.23 | 0.23 | 52 | 1003.8 |
| 20260504223017 | 24 | 199 | 6.4 | 11.3 | 0.00 | 0.23 | 0.23 | 53 | 1003.8 |
| 20260504222019 | 23 | 195 | 8.0 | 14.5 | 0.00 | 0.23 | 0.23 | 54 | 1003.8 |
| 20260504221018 | 23 | 192 | 8.0 | 12.9 | 0.00 | 0.23 | 0.23 | 57 | 1003.8 |
| 20260504220019 | 23 | 190 | 9.7 | 12.9 | 0.00 | 0.23 | 0.23 | 57 | 1004.0 |
| 20260504215018 | 23 | 195 | 8.0 | 11.3 | 0.00 | 0.23 | 0.23 | 59 | 1003.9 |
| 20260504214019 | 22 | 189 | 8.0 | 12.9 | 0.00 | 0.23 | 0.23 | 60 | 1004.1 |
| 20260504213040 | 22 | 184 | 6.4 | 12.9 | 0.03 | 0.23 | 0.23 | 60 | 1004.2 |
| 20260504212019 | 21 | 191 | 6.4 | 12.9 | 0.03 | 0.23 | 0.23 | 60 | 1004.2 |
| 20260504211020 | 20 | 176 | 11.3 | 19.3 | 0.03 | 0.23 | 0.23 | 64 | 1004.3 |
| 20260504210019 | 20 | 198 | 6.4 | 9.7 | 0.08 | 0.23 | 0.23 | 70 | 1004.4 |
| 20260504205019 | 19 | 203 | 6.4 | 9.7 | 0.13 | 0.23 | 0.23 | 71 | 1004.8 |
| 20260504204016 | 19 | 191 | 6.4 | 11.3 | 0.15 | 0.20 | 0.20 | 72 | 1005.0 |
| 20260504203018 | 18 | 193 | 6.4 | 11.3 | 0.15 | 0.18 | 0.18 | 74 | 1005.2 |
| 20260504202040 | 18 | 198 | 4.8 | 9.7 | 0.15 | 0.18 | 0.18 | 77 | 1005.3 |
| 20260504201100 | 18 | 172 | 8.0 | 11.3 | 0.15 | 0.18 | 0.18 | 75 | 1004.9 |
| 20260504200017 | 18 | 177 | 9.7 | 14.5 | 0.10 | 0.15 | 0.15 | 72 | 1004.9 |
| 20260504195019 | 18 | 171 | 9.7 | 16.1 | 0.05 | 0.10 | 0.10 | 78 | 1005.7 |
| 20260504194018 | 18 | 47 | 1.6 | 4.8 | 0.03 | 0.05 | 0.05 | 73 | 1007.4 |
| 20260504193018 | 18 | 270 | 0.0 | 1.6 | 0.00 | 0.05 | 0.03 | 71 | 1007.0 |
| 20260504192021 | 18 | 149 | 0.0 | 1.6 | 0.00 | 0.05 | 0.03 | 71 | 1006.9 |
| 20260504191017 | 19 | 37 | 1.6 | 6.4 | 0.00 | 0.05 | 0.03 | 69 | 1007.0 |
| 20260504190019 | 19 | 22 | 4.8 | 8.0 | 0.00 | 0.05 | 0.03 | 69 | 1007.1 |
| 20260504185018 | 19 | 17 | 4.8 | 6.4 | 0.00 | 0.05 | 0.03 | 68 | 1007.0 |
| 20260504184018 | 20 | 16 | 3.2 | 4.8 | 0.00 | 0.05 | 0.03 | 66 | 1007.1 |
| 20260504183020 | 20 | 331 | 1.6 | 3.2 | 0.00 | 0.05 | 0.03 | 65 | 1007.0 |
| 20260504182019 | 20 | 217 | 1.6 | 4.8 | 0.00 | 0.05 | 0.03 | 63 | 1006.5 |
| 20260504181019 | 20 | 215 | 4.8 | 8.0 | 0.00 | 0.05 | 0.03 | 63 | 1006.5 |
| 20260504180020 | 20 | 200 | 4.8 | 9.7 | 0.00 | 0.05 | 0.03 | 66 | 1006.2 |
| 20260504175020 | 20 | 201 | 4.8 | 8.0 | 0.00 | 0.05 | 0.03 | 66 | 1006.3 |
| 20260504174017 | 20 | 198 | 4.8 | 8.0 | 0.00 | 0.05 | 0.03 | 66 | 1006.3 |
| 20260504173017 | 19 | 201 | 4.8 | 8.0 | 0.00 | 0.05 | 0.03 | 67 | 1006.5 |
| 20260504172019 | 19 | 191 | 6.4 | 11.3 | 0.00 | 0.05 | 0.03 | 68 | 1006.7 |
| 20260504171020 | 19 | 184 | 6.4 | 12.9 | 0.00 | 0.05 | 0.03 | 68 | 1007.0 |